sensor_id;sensor_type;location;lat;lon;timestamp;pressure;altitude;pressure_sealevel;temperature;humidity
48668;BME280;34453;52.198;5.004;2023-04-05T00:00:28;102709.31;;;3.57;100.00
48668;BME280;34453;52.198;5.004;2023-04-05T00:02:55;102711.25;;;3.50;100.00
48668;BME280;34453;52.198;5.004;2023-04-05T00:05:22;102707.13;;;3.45;100.00
48668;BME280;34453;52.198;5.004;2023-04-05T00:07:57;102700.06;;;3.50;100.00
48668;BME280;34453;52.198;5.004;2023-04-05T00:10:26;102703.44;;;3.52;100.00
48668;BME280;34453;52.198;5.004;2023-04-05T00:12:52;102701.75;;;3.51;100.00
48668;BME280;34453;52.198;5.004;2023-04-05T00:15:17;102698.28;;;3.52;100.00
48668;BME280;34453;52.198;5.004;2023-04-05T00:17:46;102699.94;;;3.53;100.00
48668;BME280;34453;52.198;5.004;2023-04-05T00:20:12;102702.63;;;3.51;100.00
48668;BME280;34453;52.198;5.004;2023-04-05T00:22:38;102693.09;;;3.52;100.00
48668;BME280;34453;52.198;5.004;2023-04-05T00:25:04;102696.63;;;3.49;100.00
48668;BME280;34453;52.198;5.004;2023-04-05T00:27:30;102690.66;;;3.47;100.00
48668;BME280;34453;52.198;5.004;2023-04-05T00:29:55;102695.00;;;3.47;100.00
48668;BME280;34453;52.198;5.004;2023-04-05T00:32:21;102695.91;;;3.44;100.00
48668;BME280;34453;52.198;5.004;2023-04-05T00:34:46;102685.78;;;3.38;100.00
48668;BME280;34453;52.198;5.004;2023-04-05T00:37:12;102686.53;;;3.42;100.00
48668;BME280;34453;52.198;5.004;2023-04-05T00:39:38;102692.69;;;3.38;100.00
48668;BME280;34453;52.198;5.004;2023-04-05T00:42:04;102688.47;;;3.35;100.00
48668;BME280;34453;52.198;5.004;2023-04-05T00:44:30;102684.13;;;3.36;100.00
48668;BME280;34453;52.198;5.004;2023-04-05T00:47:05;102681.53;;;3.36;100.00
48668;BME280;34453;52.198;5.004;2023-04-05T00:49:31;102679.97;;;3.31;100.00
48668;BME280;34453;52.198;5.004;2023-04-05T00:51:58;102675.81;;;3.26;100.00
48668;BME280;34453;52.198;5.004;2023-04-05T00:54:24;102673.28;;;3.24;100.00
48668;BME280;34453;52.198;5.004;2023-04-05T00:56:50;102668.09;;;3.24;100.00
48668;BME280;34453;52.198;5.004;2023-04-05T00:59:19;102666.31;;;3.26;100.00
48668;BME280;34453;52.198;5.004;2023-04-05T01:01:45;102670.53;;;3.29;100.00
48668;BME280;34453;52.198;5.004;2023-04-05T01:04:21;102672.28;;;3.28;100.00
48668;BME280;34453;52.198;5.004;2023-04-05T01:09:57;102672.25;;;3.30;100.00
48668;BME280;34453;52.198;5.004;2023-04-05T01:12:27;102662.78;;;3.29;100.00
48668;BME280;34453;52.198;5.004;2023-04-05T01:14:55;102672.34;;;3.27;100.00
48668;BME280;34453;52.198;5.004;2023-04-05T01:17:22;102667.09;;;3.28;100.00
48668;BME280;34453;52.198;5.004;2023-04-05T01:19:51;102657.56;;;3.30;100.00
48668;BME280;34453;52.198;5.004;2023-04-05T01:25:48;102652.69;;;3.21;100.00
48668;BME280;34453;52.198;5.004;2023-04-05T01:31:40;102652.72;;;3.20;100.00
48668;BME280;34453;52.198;5.004;2023-04-05T01:34:25;102661.44;;;3.17;100.00
48668;BME280;34453;52.198;5.004;2023-04-05T01:36:56;102640.84;;;3.14;100.00
48668;BME280;34453;52.198;5.004;2023-04-05T01:39:26;102642.63;;;3.12;100.00
48668;BME280;34453;52.198;5.004;2023-04-05T01:41:58;102630.59;;;3.11;100.00
48668;BME280;34453;52.198;5.004;2023-04-05T01:44:23;102638.31;;;3.13;100.00
48668;BME280;34453;52.198;5.004;2023-04-05T01:46:48;102635.75;;;3.11;100.00
48668;BME280;34453;52.198;5.004;2023-04-05T01:49:14;102640.09;;;3.10;100.00
48668;BME280;34453;52.198;5.004;2023-04-05T01:51:39;102628.06;;;3.09;100.00
48668;BME280;34453;52.198;5.004;2023-04-05T01:54:06;102625.41;;;3.11;100.00
48668;BME280;34453;52.198;5.004;2023-04-05T01:56:32;102633.31;;;3.06;100.00
48668;BME280;34453;52.198;5.004;2023-04-05T01:58:57;102625.72;;;3.02;100.00
48668;BME280;34453;52.198;5.004;2023-04-05T02:01:23;102627.28;;;3.07;100.00
48668;BME280;34453;52.198;5.004;2023-04-05T02:03:49;102617.16;;;3.00;100.00
48668;BME280;34453;52.198;5.004;2023-04-05T02:06:14;102627.72;;;2.94;100.00
48668;BME280;34453;52.198;5.004;2023-04-05T02:08:40;102628.53;;;2.94;100.00
48668;BME280;34453;52.198;5.004;2023-04-05T02:11:06;102617.41;;;2.92;100.00
48668;BME280;34453;52.198;5.004;2023-04-05T02:13:31;102627.75;;;2.92;100.00
48668;BME280;34453;52.198;5.004;2023-04-05T02:15:57;102615.69;;;2.91;100.00
48668;BME280;34453;52.198;5.004;2023-04-05T02:18:22;102618.25;;;2.93;100.00
48668;BME280;34453;52.198;5.004;2023-04-05T02:21:00;102619.19;;;2.90;100.00
48668;BME280;34453;52.198;5.004;2023-04-05T02:23:26;102614.06;;;2.88;100.00
48668;BME280;34453;52.198;5.004;2023-04-05T02:25:52;102609.94;;;2.83;100.00
48668;BME280;34453;52.198;5.004;2023-04-05T02:28:17;102602.13;;;2.84;100.00
48668;BME280;34453;52.198;5.004;2023-04-05T02:30:43;102600.34;;;2.86;100.00
48668;BME280;34453;52.198;5.004;2023-04-05T02:33:08;102602.13;;;2.84;100.00
48668;BME280;34453;52.198;5.004;2023-04-05T02:35:34;102599.59;;;2.83;100.00
48668;BME280;34453;52.198;5.004;2023-04-05T02:38:01;102600.56;;;2.80;100.00
48668;BME280;34453;52.198;5.004;2023-04-05T02:40:26;102595.44;;;2.77;100.00
48668;BME280;34453;52.198;5.004;2023-04-05T02:42:52;102584.31;;;2.75;100.00
48668;BME280;34453;52.198;5.004;2023-04-05T02:45:17;102594.72;;;2.74;100.00
48668;BME280;34453;52.198;5.004;2023-04-05T02:47:43;102598.94;;;2.76;100.00
48668;BME280;34453;52.198;5.004;2023-04-05T02:50:08;102594.72;;;2.74;100.00
48668;BME280;34453;52.198;5.004;2023-04-05T02:52:34;102596.44;;;2.73;100.00
48668;BME280;34453;52.198;5.004;2023-04-05T02:55:03;102587.03;;;2.70;100.00
48668;BME280;34453;52.198;5.004;2023-04-05T02:57:28;102583.63;;;2.70;100.00
48668;BME280;34453;52.198;5.004;2023-04-05T02:59:53;102584.63;;;2.64;100.00
48668;BME280;34453;52.198;5.004;2023-04-05T03:02:19;102585.50;;;2.65;100.00
48668;BME280;34453;52.198;5.004;2023-04-05T03:04:45;102579.56;;;2.61;100.00
48668;BME280;34453;52.198;5.004;2023-04-05T03:07:10;102582.31;;;2.57;100.00
48668;BME280;34453;52.198;5.004;2023-04-05T03:09:38;102582.31;;;2.57;100.00
48668;BME280;34453;52.198;5.004;2023-04-05T03:12:04;102572.00;;;2.55;100.00
48668;BME280;34453;52.198;5.004;2023-04-05T03:14:29;102570.34;;;2.54;100.00
48668;BME280;34453;52.198;5.004;2023-04-05T03:16:56;102568.69;;;2.52;100.00
48668;BME280;34453;52.198;5.004;2023-04-05T03:19:21;102567.72;;;2.56;100.00
48668;BME280;34453;52.198;5.004;2023-04-05T03:21:48;102564.34;;;2.52;100.00
48668;BME280;34453;52.198;5.004;2023-04-05T03:24:14;102572.06;;;2.54;100.00
48668;BME280;34453;52.198;5.004;2023-04-05T03:26:43;102559.19;;;2.52;100.00
48668;BME280;34453;52.198;5.004;2023-04-05T03:29:09;102560.06;;;2.51;100.00
48668;BME280;34453;52.198;5.004;2023-04-05T03:31:34;102561.00;;;2.48;100.00
48668;BME280;34453;52.198;5.004;2023-04-05T03:34:00;102561.91;;;2.47;100.00
48668;BME280;34453;52.198;5.004;2023-04-05T03:36:25;102558.63;;;2.42;100.00
48668;BME280;34453;52.198;5.004;2023-04-05T03:38:55;102559.50;;;2.41;100.00
48668;BME280;34453;52.198;5.004;2023-04-05T03:41:20;102556.94;;;2.41;100.00
48668;BME280;34453;52.198;5.004;2023-04-05T03:43:47;102562.09;;;2.41;100.00
48668;BME280;34453;52.198;5.004;2023-04-05T03:46:13;102566.44;;;2.41;100.00
48668;BME280;34453;52.198;5.004;2023-04-05T03:48:38;102564.72;;;2.40;100.00
48668;BME280;34453;52.198;5.004;2023-04-05T03:51:03;102562.19;;;2.38;100.00
48668;BME280;34453;52.198;5.004;2023-04-05T03:53:30;102563.13;;;2.36;100.00
48668;BME280;34453;52.198;5.004;2023-04-05T03:55:55;102566.69;;;2.32;100.00
48668;BME280;34453;52.198;5.004;2023-04-05T03:58:21;102565.75;;;2.34;100.00
48668;BME280;34453;52.198;5.004;2023-04-05T04:00:46;102567.53;;;2.32;100.00
48668;BME280;34453;52.198;5.004;2023-04-05T04:03:13;102564.06;;;2.33;100.00
48668;BME280;34453;52.198;5.004;2023-04-05T04:05:39;102565.00;;;2.31;100.00
48668;BME280;34453;52.198;5.004;2023-04-05T04:08:05;102571.00;;;2.31;100.00
48668;BME280;34453;52.198;5.004;2023-04-05T04:10:31;102569.31;;;2.30;100.00
48668;BME280;34453;52.198;5.004;2023-04-05T04:12:56;102576.41;;;2.23;100.00
48668;BME280;34453;52.198;5.004;2023-04-05T04:15:22;102566.06;;;2.23;100.00
48668;BME280;34453;52.198;5.004;2023-04-05T04:17:47;102567.00;;;2.21;100.00
48668;BME280;34453;52.198;5.004;2023-04-05T04:20:13;102564.44;;;2.21;100.00
48668;BME280;34453;52.198;5.004;2023-04-05T04:22:39;102565.44;;;2.15;100.00
48668;BME280;34453;52.198;5.004;2023-04-05T04:25:08;102565.44;;;2.15;100.00
48668;BME280;34453;52.198;5.004;2023-04-05T04:27:36;102567.22;;;2.13;100.00
48668;BME280;34453;52.198;5.004;2023-04-05T04:30:04;102553.44;;;2.14;100.00
48668;BME280;34453;52.198;5.004;2023-04-05T04:32:30;102559.53;;;2.12;100.00
48668;BME280;34453;52.198;5.004;2023-04-05T04:35:15;102563.94;;;2.08;100.00
48668;BME280;34453;52.198;5.004;2023-04-05T04:37:46;102558.91;;;2.03;100.00
48668;BME280;34453;52.198;5.004;2023-04-05T04:40:14;102558.09;;;2.01;100.00
48668;BME280;34453;52.198;5.004;2023-04-05T04:42:43;102558.19;;;1.98;100.00
48668;BME280;34453;52.198;5.004;2023-04-05T04:45:15;102554.75;;;1.98;100.00
48668;BME280;34453;52.198;5.004;2023-04-05T04:47:45;102559.03;;;1.99;100.00
48668;BME280;34453;52.198;5.004;2023-04-05T04:50:12;102560.03;;;1.93;100.00
48668;BME280;34453;52.198;5.004;2023-04-05T04:52:38;102554.13;;;1.90;100.00
48668;BME280;34453;52.198;5.004;2023-04-05T04:55:07;102554.88;;;1.93;100.00
48668;BME280;34453;52.198;5.004;2023-04-05T04:57:34;102554.69;;;2.01;100.00
48668;BME280;34453;52.198;5.004;2023-04-05T04:59:59;102548.69;;;2.00;100.00
48668;BME280;34453;52.198;5.004;2023-04-05T05:02:26;102548.84;;;1.94;100.00
48668;BME280;34453;52.198;5.004;2023-04-05T05:04:52;102549.72;;;1.93;100.00
48668;BME280;34453;52.198;5.004;2023-04-05T05:07:18;102549.66;;;1.96;100.00
48668;BME280;34453;52.198;5.004;2023-04-05T05:09:43;102547.13;;;1.93;100.00
48668;BME280;34453;52.198;5.004;2023-04-05T05:12:10;102544.66;;;1.90;100.00
48668;BME280;34453;52.198;5.004;2023-04-05T05:14:35;102544.75;;;1.87;100.00
48668;BME280;34453;52.198;5.004;2023-04-05T05:17:00;102539.50;;;1.90;100.00
48668;BME280;34453;52.198;5.004;2023-04-05T05:19:26;102546.31;;;1.91;100.00
48668;BME280;34453;52.198;5.004;2023-04-05T05:21:53;102542.06;;;1.90;100.00
48668;BME280;34453;52.198;5.004;2023-04-05T05:24:19;102551.44;;;1.94;100.00
48668;BME280;34453;52.198;5.004;2023-04-05T05:26:44;102556.59;;;1.94;100.00
48668;BME280;34453;52.198;5.004;2023-04-05T05:29:10;102554.88;;;1.93;100.00
48668;BME280;34453;52.198;5.004;2023-04-05T05:31:35;102556.50;;;1.97;100.00
48668;BME280;34453;52.198;5.004;2023-04-05T05:34:01;102549.47;;;2.02;100.00
48668;BME280;34453;52.198;5.004;2023-04-05T05:36:26;102549.53;;;1.99;100.00
48668;BME280;34453;52.198;5.004;2023-04-05T05:38:52;102553.03;;;1.98;100.00
48668;BME280;34453;52.198;5.004;2023-04-05T05:41:20;102545.09;;;2.04;100.00
48668;BME280;34453;52.198;5.004;2023-04-05T05:43:46;102545.03;;;2.07;100.00
48668;BME280;34453;52.198;5.004;2023-04-05T05:46:12;102551.94;;;2.07;100.00
48668;BME280;34453;52.198;5.004;2023-04-05T05:48:38;102555.22;;;2.12;100.00
48668;BME280;34453;52.198;5.004;2023-04-05T05:51:03;102552.59;;;2.14;100.00
48668;BME280;34453;52.198;5.004;2023-04-05T05:53:35;102557.53;;;2.21;100.00
48668;BME280;34453;52.198;5.004;2023-04-05T05:56:01;102550.53;;;2.25;100.00
48668;BME280;34453;52.198;5.004;2023-04-05T05:58:26;102553.94;;;2.27;100.00
48668;BME280;34453;52.198;5.004;2023-04-05T06:00:52;102553.72;;;2.33;100.00
48668;BME280;34453;52.198;5.004;2023-04-05T06:03:24;102562.19;;;2.38;100.00
48668;BME280;34453;52.198;5.004;2023-04-05T06:05:55;102563.81;;;2.42;100.00
48668;BME280;34453;52.198;5.004;2023-04-05T06:08:22;102563.69;;;2.45;100.00
48668;BME280;34453;52.198;5.004;2023-04-05T06:10:48;102560.94;;;2.52;100.00
48668;BME280;34453;52.198;5.004;2023-04-05T06:13:14;102552.91;;;2.61;100.00
48668;BME280;34453;52.198;5.004;2023-04-05T06:15:41;102567.41;;;2.65;100.00
48668;BME280;34453;52.198;5.004;2023-04-05T06:18:06;102560.53;;;2.64;100.00
48668;BME280;34453;52.198;5.004;2023-04-05T06:20:32;102564.63;;;2.71;100.00
48668;BME280;34453;52.198;5.004;2023-04-05T06:22:57;102559.38;;;2.74;100.00
48668;BME280;34453;52.198;5.004;2023-04-05T06:25:23;102558.03;;;2.89;100.00
48668;BME280;34453;52.198;5.004;2023-04-05T06:27:48;102551.81;;;2.95;100.00
48668;BME280;34453;52.198;5.004;2023-04-05T06:30:13;102553.09;;;3.08;100.00
48668;BME280;34453;52.198;5.004;2023-04-05T06:32:39;102551.91;;;3.18;100.00
48668;BME280;34453;52.198;5.004;2023-04-05T06:35:05;102544.81;;;3.25;100.00
48668;BME280;34453;52.198;5.004;2023-04-05T06:37:31;102551.44;;;3.32;100.00
48668;BME280;34453;52.198;5.004;2023-04-05T06:39:57;102548.03;;;3.31;100.00
48668;BME280;34453;52.198;5.004;2023-04-05T06:42:23;102548.69;;;3.37;100.00
48668;BME280;34453;52.198;5.004;2023-04-05T06:44:48;102551.00;;;3.44;100.00
48668;BME280;34453;52.198;5.004;2023-04-05T06:47:14;102542.19;;;3.50;100.00
48668;BME280;34453;52.198;5.004;2023-04-05T06:49:40;102538.41;;;3.60;100.00
48668;BME280;34453;52.198;5.004;2023-04-05T06:52:05;102542.25;;;3.73;100.00
48668;BME280;34453;52.198;5.004;2023-04-05T06:54:32;102543.09;;;3.74;100.00
48668;BME280;34453;52.198;5.004;2023-04-05T06:56:57;102546.13;;;3.85;100.00
48668;BME280;34453;52.198;5.004;2023-04-05T06:59:23;102539.66;;;3.97;100.00
48668;BME280;34453;52.198;5.004;2023-04-05T07:01:48;102537.84;;;3.99;100.00
48668;BME280;34453;52.198;5.004;2023-04-05T07:04:14;102536.47;;;4.12;100.00
48668;BME280;34453;52.198;5.004;2023-04-05T07:06:39;102533.53;;;4.22;100.00
48668;BME280;34453;52.198;5.004;2023-04-05T07:09:05;102544.28;;;4.34;100.00
48668;BME280;34453;52.198;5.004;2023-04-05T07:11:30;102542.97;;;4.46;100.00
48668;BME280;34453;52.198;5.004;2023-04-05T07:13:58;102542.53;;;4.57;100.00
48668;BME280;34453;52.198;5.004;2023-04-05T07:16:23;102542.34;;;4.62;100.00
48668;BME280;34453;52.198;5.004;2023-04-05T07:18:49;102546.38;;;4.69;100.00
48668;BME280;34453;52.198;5.004;2023-04-05T07:21:15;102540.19;;;4.73;100.00
48668;BME280;34453;52.198;5.004;2023-04-05T07:23:41;102536.91;;;4.90;100.00
48668;BME280;34453;52.198;5.004;2023-04-05T07:26:06;102537.19;;;5.04;100.00
48668;BME280;34453;52.198;5.004;2023-04-05T07:28:33;102537.66;;;5.14;100.00
48668;BME280;34453;52.198;5.004;2023-04-05T07:31:00;102527.91;;;5.19;100.00
48668;BME280;34453;52.198;5.004;2023-04-05T07:33:26;102534.53;;;5.26;100.00
48668;BME280;34453;52.198;5.004;2023-04-05T07:35:53;102525.44;;;5.36;100.00
48668;BME280;34453;52.198;5.004;2023-04-05T07:38:19;102525.00;;;5.47;100.00
48668;BME280;34453;52.198;5.004;2023-04-05T07:40:47;102525.16;;;5.63;100.00
48668;BME280;34453;52.198;5.004;2023-04-05T07:43:13;102527.28;;;5.74;100.00
48668;BME280;34453;52.198;5.004;2023-04-05T07:45:39;102527.19;;;5.75;100.00
48668;BME280;34453;52.198;5.004;2023-04-05T07:48:05;102534.72;;;5.81;100.00
48668;BME280;34453;52.198;5.004;2023-04-05T07:50:31;102519.25;;;5.99;100.00
48668;BME280;34453;52.198;5.004;2023-04-05T07:52:56;102527.88;;;6.18;100.00
48668;BME280;34453;52.198;5.004;2023-04-05T07:55:22;102526.41;;;6.32;100.00
48668;BME280;34453;52.198;5.004;2023-04-05T07:57:47;102525.97;;;6.41;100.00
48668;BME280;34453;52.198;5.004;2023-04-05T08:00:13;102522.47;;;6.23;100.00
48668;BME280;34453;52.198;5.004;2023-04-05T08:02:39;102520.31;;;6.50;100.00
48668;BME280;34453;52.198;5.004;2023-04-05T08:05:05;102522.41;;;6.61;100.00
48668;BME280;34453;52.198;5.004;2023-04-05T08:07:30;102521.88;;;6.72;100.00
48668;BME280;34453;52.198;5.004;2023-04-05T08:09:56;102528.94;;;6.87;100.00
48668;BME280;34453;52.198;5.004;2023-04-05T08:12:24;102528.78;;;6.90;100.00
48668;BME280;34453;52.198;5.004;2023-04-05T08:14:50;102517.06;;;6.81;100.00
48668;BME280;34453;52.198;5.004;2023-04-05T08:17:15;102515.25;;;7.01;100.00
48668;BME280;34453;52.198;5.004;2023-04-05T08:19:42;102517.75;;;7.02;100.00
48668;BME280;34453;52.198;5.004;2023-04-05T08:22:07;102513.59;;;7.16;100.00
48668;BME280;34453;52.198;5.004;2023-04-05T08:24:33;102518.41;;;7.41;100.00
48668;BME280;34453;52.198;5.004;2023-04-05T08:26:58;102517.97;;;7.66;100.00
48668;BME280;34453;52.198;5.004;2023-04-05T08:29:24;102505.78;;;7.82;100.00
48668;BME280;34453;52.198;5.004;2023-04-05T08:31:49;102500.44;;;8.01;100.00
48668;BME280;34453;52.198;5.004;2023-04-05T08:34:14;102502.78;;;8.06;100.00
48668;BME280;34453;52.198;5.004;2023-04-05T08:36:40;102502.72;;;8.23;100.00
48668;BME280;34453;52.198;5.004;2023-04-05T08:39:05;102501.84;;;8.39;100.00
48668;BME280;34453;52.198;5.004;2023-04-05T08:41:35;102500.16;;;8.38;100.00
48668;BME280;34453;52.198;5.004;2023-04-05T08:44:03;102502.13;;;8.34;100.00
48668;BME280;34453;52.198;5.004;2023-04-05T08:46:30;102490.22;;;8.60;100.00
48668;BME280;34453;52.198;5.004;2023-04-05T08:48:57;102495.94;;;8.67;100.00
48668;BME280;34453;52.198;5.004;2023-04-05T08:51:23;102500.56;;;8.62;100.00
48668;BME280;34453;52.198;5.004;2023-04-05T08:53:50;102486.94;;;8.87;100.00
48668;BME280;34453;52.198;5.004;2023-04-05T08:56:20;102494.25;;;8.96;100.00
48668;BME280;34453;52.198;5.004;2023-04-05T08:59:03;102491.66;;;9.25;100.00
48668;BME280;34453;52.198;5.004;2023-04-05T09:01:32;102494.94;;;9.14;100.00
48668;BME280;34453;52.198;5.004;2023-04-05T09:04:08;102503.13;;;9.08;100.00
48668;BME280;34453;52.198;5.004;2023-04-05T09:06:35;102490.53;;;9.29;100.00
48668;BME280;34453;52.198;5.004;2023-04-05T09:09:05;102485.91;;;9.34;100.00
48668;BME280;34453;52.198;5.004;2023-04-05T09:11:31;102487.00;;;9.44;100.00
48668;BME280;34453;52.198;5.004;2023-04-05T09:13:57;102489.25;;;9.50;100.00
48668;BME280;34453;52.198;5.004;2023-04-05T09:16:24;102487.84;;;9.45;100.00
48668;BME280;34453;52.198;5.004;2023-04-05T09:18:51;102487.47;;;9.65;100.00
48668;BME280;34453;52.198;5.004;2023-04-05T09:21:16;102491.34;;;9.87;100.00
48668;BME280;34453;52.198;5.004;2023-04-05T09:23:50;102489.19;;;9.93;100.00
48668;BME280;34453;52.198;5.004;2023-04-05T09:26:21;102484.53;;;9.99;100.00
48668;BME280;34453;52.198;5.004;2023-04-05T09:28:47;102492.25;;;10.14;100.00
48668;BME280;34453;52.198;5.004;2023-04-05T09:31:33;102488.00;;;10.26;100.00
48668;BME280;34453;52.198;5.004;2023-04-05T09:34:02;102479.63;;;10.21;100.00
48668;BME280;34453;52.198;5.004;2023-04-05T09:36:29;102479.13;;;10.29;100.00
48668;BME280;34453;52.198;5.004;2023-04-05T09:39:05;102478.22;;;10.70;100.00
48668;BME280;34453;52.198;5.004;2023-04-05T09:41:31;102483.25;;;10.86;100.00
48668;BME280;34453;52.198;5.004;2023-04-05T09:43:57;102480.72;;;10.71;100.00
48668;BME280;34453;52.198;5.004;2023-04-05T09:46:33;102469.66;;;11.06;100.00
48668;BME280;34453;52.198;5.004;2023-04-05T09:49:01;102472.88;;;11.48;100.00
48668;BME280;34453;52.198;5.004;2023-04-05T09:51:36;102461.56;;;11.85;100.00
48668;BME280;34453;52.198;5.004;2023-04-05T09:54:09;102461.47;;;12.23;100.00
48668;BME280;34453;52.198;5.004;2023-04-05T09:56:37;102467.16;;;12.17;100.00
48668;BME280;34453;52.198;5.004;2023-04-05T09:59:07;102464.44;;;12.18;100.00
48668;BME280;34453;52.198;5.004;2023-04-05T10:01:35;102459.63;;;12.36;100.00
48668;BME280;34453;52.198;5.004;2023-04-05T10:04:01;102456.84;;;12.38;100.00
48668;BME280;34453;52.198;5.004;2023-04-05T10:06:42;102450.53;;;12.40;100.00
48668;BME280;34453;52.198;5.004;2023-04-05T10:09:09;102441.47;;;12.33;100.00
48668;BME280;34453;52.198;5.004;2023-04-05T10:11:36;102456.97;;;11.75;100.00
48668;BME280;34453;52.198;5.004;2023-04-05T10:14:06;102453.53;;;11.75;100.00
48668;BME280;34453;52.198;5.004;2023-04-05T10:16:52;102442.59;;;12.18;100.00
48668;BME280;34453;52.198;5.004;2023-04-05T10:19:26;102445.38;;;12.28;100.00
48668;BME280;34453;52.198;5.004;2023-04-05T10:21:53;102438.31;;;12.17;100.00
48668;BME280;34453;52.198;5.004;2023-04-05T10:24:47;102442.81;;;12.15;100.00
48668;BME280;34453;52.198;5.004;2023-04-05T10:27:20;102438.69;;;11.87;100.00
48668;BME280;34453;52.198;5.004;2023-04-05T10:30:14;102435.47;;;12.31;100.00
48668;BME280;34453;52.198;5.004;2023-04-05T10:33:10;102431.25;;;12.53;100.00
48668;BME280;34453;52.198;5.004;2023-04-05T10:38:27;102428.28;;;12.57;100.00
48668;BME280;34453;52.198;5.004;2023-04-05T10:40:56;102424.81;;;12.46;100.00
48668;BME280;34453;52.198;5.004;2023-04-05T10:43:27;102421.53;;;12.77;100.00
48668;BME280;34453;52.198;5.004;2023-04-05T10:45:56;102425.03;;;12.54;100.00
48668;BME280;34453;52.198;5.004;2023-04-05T10:51:00;102420.84;;;13.09;100.00
48668;BME280;34453;52.198;5.004;2023-04-05T10:53:27;102423.00;;;13.15;100.00
48668;BME280;34453;52.198;5.004;2023-04-05T10:55:56;102411.31;;;13.31;100.00
48668;BME280;34453;52.198;5.004;2023-04-05T10:58:23;102413.69;;;13.45;100.00
48668;BME280;34453;52.198;5.004;2023-04-05T11:00:50;102409.38;;;13.55;100.00
48668;BME280;34453;52.198;5.004;2023-04-05T11:06:20;102397.22;;;13.43;98.26
48668;BME280;34453;52.198;5.004;2023-04-05T11:08:48;102403.88;;;13.24;99.23
48668;BME280;34453;52.198;5.004;2023-04-05T11:11:16;102401.25;;;13.24;100.00
48668;BME280;34453;52.198;5.004;2023-04-05T11:13:50;102400.91;;;13.40;96.06
48668;BME280;34453;52.198;5.004;2023-04-05T11:16:16;102405.59;;;13.37;96.26
48668;BME280;34453;52.198;5.004;2023-04-05T11:18:49;102388.31;;;13.66;100.00
48668;BME280;34453;52.198;5.004;2023-04-05T11:21:23;102403.06;;;13.35;91.64
48668;BME280;34453;52.198;5.004;2023-04-05T11:24:04;102403.88;;;13.13;98.01
48668;BME280;34453;52.198;5.004;2023-04-05T11:26:54;102396.50;;;13.41;93.05
48668;BME280;34453;52.198;5.004;2023-04-05T11:29:52;102389.00;;;13.80;100.00
48668;BME280;34453;52.198;5.004;2023-04-05T11:32:19;102392.22;;;13.83;91.55
48668;BME280;34453;52.198;5.004;2023-04-05T11:34:57;102389.31;;;13.20;88.31
48668;BME280;34453;52.198;5.004;2023-04-05T11:40:27;102381.22;;;13.01;85.72
48668;BME280;34453;52.198;5.004;2023-04-05T11:43:13;102378.81;;;12.98;90.24
48668;BME280;34453;52.198;5.004;2023-04-05T11:45:40;102363.63;;;12.56;88.21
48668;BME280;34453;52.198;5.004;2023-04-05T11:48:12;102369.38;;;12.95;100.00
48668;BME280;34453;52.198;5.004;2023-04-05T11:50:39;102361.34;;;13.53;95.05
48668;BME280;34453;52.198;5.004;2023-04-05T11:53:14;102360.72;;;13.61;85.60
48668;BME280;34453;52.198;5.004;2023-04-05T11:55:45;102365.91;;;13.06;96.17
48668;BME280;34453;52.198;5.004;2023-04-05T11:58:15;102364.00;;;12.97;89.14
48668;BME280;34453;52.198;5.004;2023-04-05T12:00:42;102357.03;;;13.52;84.09
48668;BME280;34453;52.198;5.004;2023-04-05T12:03:14;102357.69;;;12.88;81.28
48668;BME280;34453;52.198;5.004;2023-04-05T12:05:49;102347.97;;;12.55;92.74
48668;BME280;34453;52.198;5.004;2023-04-05T12:08:16;102344.63;;;13.20;92.96
48668;BME280;34453;52.198;5.004;2023-04-05T12:10:41;102349.53;;;12.69;91.28
48668;BME280;34453;52.198;5.004;2023-04-05T12:13:07;102347.66;;;12.24;92.03
48668;BME280;34453;52.198;5.004;2023-04-05T12:15:36;102339.00;;;11.99;94.74
48668;BME280;34453;52.198;5.004;2023-04-05T12:18:02;102351.75;;;12.28;97.21
48668;BME280;34453;52.198;5.004;2023-04-05T12:20:28;102352.91;;;11.89;95.64
48668;BME280;34453;52.198;5.004;2023-04-05T12:22:55;102349.94;;;11.45;97.51
48668;BME280;34453;52.198;5.004;2023-04-05T12:25:22;102349.16;;;11.19;92.31
48668;BME280;34453;52.198;5.004;2023-04-05T12:27:47;102342.00;;;11.34;100.00
48668;BME280;34453;52.198;5.004;2023-04-05T12:30:17;102345.56;;;11.33;100.00
48668;BME280;34453;52.198;5.004;2023-04-05T12:32:49;102340.88;;;11.49;100.00
48668;BME280;34453;52.198;5.004;2023-04-05T12:35:17;102339.56;;;11.68;97.61
48668;BME280;34453;52.198;5.004;2023-04-05T12:37:43;102333.69;;;12.12;100.00
48668;BME280;34453;52.198;5.004;2023-04-05T12:40:09;102333.16;;;12.42;86.14
48668;BME280;34453;52.198;5.004;2023-04-05T12:42:37;102329.63;;;12.89;87.05
48668;BME280;34453;52.198;5.004;2023-04-05T12:45:10;102332.03;;;12.92;88.42
48668;BME280;34453;52.198;5.004;2023-04-05T12:47:47;102322.94;;;12.73;91.93
48668;BME280;34453;52.198;5.004;2023-04-05T12:50:15;102322.69;;;12.88;98.03
48668;BME280;34453;52.198;5.004;2023-04-05T12:52:51;102331.09;;;12.23;88.54
48668;BME280;34453;52.198;5.004;2023-04-05T12:55:17;102317.13;;;12.12;90.30
48668;BME280;34453;52.198;5.004;2023-04-05T12:57:42;102316.88;;;12.15;84.52
48668;BME280;34453;52.198;5.004;2023-04-05T13:00:08;102309.78;;;12.62;89.05
48668;BME280;34453;52.198;5.004;2023-04-05T13:02:35;102312.66;;;12.36;89.80
48668;BME280;34453;52.198;5.004;2023-04-05T13:05:00;102314.31;;;11.91;92.27
48668;BME280;34453;52.198;5.004;2023-04-05T13:07:26;102316.50;;;11.84;95.14
48668;BME280;34453;52.198;5.004;2023-04-05T13:09:51;102308.09;;;11.68;90.49
48668;BME280;34453;52.198;5.004;2023-04-05T13:12:16;102307.97;;;11.69;95.83